sensor_id;sensor_type;location;lat;lon;timestamp;P1;durP1;ratioP1;P2;durP2;ratioP2
19414;SDS011;9843;48.882;12.592;2023-02-11T00:00:28;105.57;;;64.33;;
19414;SDS011;9843;48.882;12.592;2023-02-11T00:02:55;110.43;;;62.07;;
19414;SDS011;9843;48.882;12.592;2023-02-11T00:05:22;106.87;;;64.50;;
19414;SDS011;9843;48.882;12.592;2023-02-11T00:07:50;101.77;;;65.73;;
19414;SDS011;9843;48.882;12.592;2023-02-11T00:10:17;95.97;;;61.10;;
19414;SDS011;9843;48.882;12.592;2023-02-11T00:12:44;100.27;;;62.83;;
19414;SDS011;9843;48.882;12.592;2023-02-11T00:15:12;113.67;;;66.27;;
19414;SDS011;9843;48.882;12.592;2023-02-11T00:17:39;109.43;;;68.13;;
19414;SDS011;9843;48.882;12.592;2023-02-11T00:20:06;101.30;;;62.60;;
19414;SDS011;9843;48.882;12.592;2023-02-11T00:22:34;100.90;;;66.13;;
19414;SDS011;9843;48.882;12.592;2023-02-11T00:25:01;107.30;;;61.83;;
19414;SDS011;9843;48.882;12.592;2023-02-11T00:27:28;95.40;;;59.23;;
19414;SDS011;9843;48.882;12.592;2023-02-11T00:29:55;102.53;;;63.37;;
19414;SDS011;9843;48.882;12.592;2023-02-11T00:32:25;107.33;;;66.60;;
19414;SDS011;9843;48.882;12.592;2023-02-11T00:34:52;85.93;;;56.23;;
19414;SDS011;9843;48.882;12.592;2023-02-11T00:37:20;100.50;;;64.40;;
19414;SDS011;9843;48.882;12.592;2023-02-11T00:39:47;95.80;;;61.83;;
19414;SDS011;9843;48.882;12.592;2023-02-11T00:42:14;100.40;;;64.17;;
19414;SDS011;9843;48.882;12.592;2023-02-11T00:44:41;92.13;;;54.43;;
19414;SDS011;9843;48.882;12.592;2023-02-11T00:47:09;89.03;;;59.87;;
19414;SDS011;9843;48.882;12.592;2023-02-11T00:49:37;87.93;;;58.13;;
19414;SDS011;9843;48.882;12.592;2023-02-11T00:52:05;100.90;;;63.00;;
19414;SDS011;9843;48.882;12.592;2023-02-11T00:54:32;97.67;;;62.07;;
19414;SDS011;9843;48.882;12.592;2023-02-11T00:56:59;101.73;;;60.90;;
19414;SDS011;9843;48.882;12.592;2023-02-11T00:59:26;107.40;;;62.50;;
19414;SDS011;9843;48.882;12.592;2023-02-11T01:01:53;99.93;;;59.53;;
19414;SDS011;9843;48.882;12.592;2023-02-11T01:04:20;100.27;;;61.93;;
19414;SDS011;9843;48.882;12.592;2023-02-11T01:06:49;94.43;;;57.10;;
19414;SDS011;9843;48.882;12.592;2023-02-11T01:09:16;102.17;;;60.70;;
19414;SDS011;9843;48.882;12.592;2023-02-11T01:11:45;105.63;;;63.07;;
19414;SDS011;9843;48.882;12.592;2023-02-11T01:14:12;113.93;;;66.53;;
19414;SDS011;9843;48.882;12.592;2023-02-11T01:16:39;101.13;;;59.20;;
19414;SDS011;9843;48.882;12.592;2023-02-11T01:19:06;106.23;;;63.50;;
19414;SDS011;9843;48.882;12.592;2023-02-11T01:21:33;93.97;;;62.63;;
19414;SDS011;9843;48.882;12.592;2023-02-11T01:24:01;107.20;;;64.70;;
19414;SDS011;9843;48.882;12.592;2023-02-11T01:26:28;93.53;;;58.70;;
19414;SDS011;9843;48.882;12.592;2023-02-11T01:28:55;99.13;;;62.70;;
19414;SDS011;9843;48.882;12.592;2023-02-11T01:31:24;105.20;;;62.43;;
19414;SDS011;9843;48.882;12.592;2023-02-11T01:33:51;94.67;;;61.03;;
19414;SDS011;9843;48.882;12.592;2023-02-11T01:36:18;96.97;;;64.23;;
19414;SDS011;9843;48.882;12.592;2023-02-11T01:38:45;90.57;;;59.27;;
19414;SDS011;9843;48.882;12.592;2023-02-11T01:41:15;112.00;;;66.53;;
19414;SDS011;9843;48.882;12.592;2023-02-11T01:43:43;117.97;;;68.00;;
19414;SDS011;9843;48.882;12.592;2023-02-11T01:46:23;124.30;;;68.03;;
19414;SDS011;9843;48.882;12.592;2023-02-11T01:48:52;107.37;;;67.63;;
19414;SDS011;9843;48.882;12.592;2023-02-11T01:51:21;99.70;;;63.57;;
19414;SDS011;9843;48.882;12.592;2023-02-11T01:53:49;106.67;;;64.93;;
19414;SDS011;9843;48.882;12.592;2023-02-11T01:56:37;106.97;;;68.20;;
19414;SDS011;9843;48.882;12.592;2023-02-11T01:59:23;106.23;;;67.10;;
19414;SDS011;9843;48.882;12.592;2023-02-11T02:01:56;97.93;;;62.90;;
19414;SDS011;9843;48.882;12.592;2023-02-11T02:04:24;100.43;;;61.30;;
19414;SDS011;9843;48.882;12.592;2023-02-11T02:06:56;103.73;;;60.57;;
19414;SDS011;9843;48.882;12.592;2023-02-11T02:09:25;109.57;;;63.93;;
19414;SDS011;9843;48.882;12.592;2023-02-11T02:11:55;95.47;;;59.63;;
19414;SDS011;9843;48.882;12.592;2023-02-11T02:14:22;107.37;;;63.07;;
19414;SDS011;9843;48.882;12.592;2023-02-11T02:16:50;113.50;;;67.13;;
19414;SDS011;9843;48.882;12.592;2023-02-11T02:19:31;107.10;;;67.43;;
19414;SDS011;9843;48.882;12.592;2023-02-11T02:22:15;104.57;;;62.20;;
19414;SDS011;9843;48.882;12.592;2023-02-11T02:24:55;98.63;;;61.57;;
19414;SDS011;9843;48.882;12.592;2023-02-11T02:27:34;105.63;;;62.30;;
19414;SDS011;9843;48.882;12.592;2023-02-11T02:30:07;105.87;;;62.43;;
19414;SDS011;9843;48.882;12.592;2023-02-11T02:35:28;99.27;;;60.67;;
19414;SDS011;9843;48.882;12.592;2023-02-11T02:37:56;98.00;;;61.93;;
19414;SDS011;9843;48.882;12.592;2023-02-11T02:40:27;107.17;;;62.17;;
19414;SDS011;9843;48.882;12.592;2023-02-11T02:42:55;95.40;;;59.20;;
19414;SDS011;9843;48.882;12.592;2023-02-11T02:45:23;96.43;;;57.00;;
19414;SDS011;9843;48.882;12.592;2023-02-11T02:47:50;98.43;;;61.37;;
19414;SDS011;9843;48.882;12.592;2023-02-11T02:50:19;102.40;;;61.60;;
19414;SDS011;9843;48.882;12.592;2023-02-11T02:52:51;94.50;;;61.40;;
19414;SDS011;9843;48.882;12.592;2023-02-11T02:55:33;91.37;;;56.60;;
19414;SDS011;9843;48.882;12.592;2023-02-11T02:58:22;96.20;;;58.40;;
19414;SDS011;9843;48.882;12.592;2023-02-11T03:00:55;98.47;;;59.00;;
19414;SDS011;9843;48.882;12.592;2023-02-11T03:03:26;94.97;;;57.23;;
19414;SDS011;9843;48.882;12.592;2023-02-11T03:05:56;92.73;;;57.20;;
19414;SDS011;9843;48.882;12.592;2023-02-11T03:08:26;93.77;;;57.40;;
19414;SDS011;9843;48.882;12.592;2023-02-11T03:10:55;94.63;;;59.47;;
19414;SDS011;9843;48.882;12.592;2023-02-11T03:13:25;102.57;;;57.80;;
19414;SDS011;9843;48.882;12.592;2023-02-11T03:15:54;92.87;;;55.53;;
19414;SDS011;9843;48.882;12.592;2023-02-11T03:18:23;85.50;;;52.67;;
19414;SDS011;9843;48.882;12.592;2023-02-11T03:20:52;88.60;;;57.17;;
19414;SDS011;9843;48.882;12.592;2023-02-11T03:23:20;97.37;;;58.57;;
19414;SDS011;9843;48.882;12.592;2023-02-11T03:25:52;86.83;;;58.70;;
19414;SDS011;9843;48.882;12.592;2023-02-11T03:28:21;84.47;;;53.73;;
19414;SDS011;9843;48.882;12.592;2023-02-11T03:30:52;92.50;;;57.87;;
19414;SDS011;9843;48.882;12.592;2023-02-11T03:33:23;89.77;;;60.20;;
19414;SDS011;9843;48.882;12.592;2023-02-11T03:35:52;85.90;;;57.13;;
19414;SDS011;9843;48.882;12.592;2023-02-11T03:38:20;85.37;;;52.27;;
19414;SDS011;9843;48.882;12.592;2023-02-11T03:40:48;94.67;;;58.47;;
19414;SDS011;9843;48.882;12.592;2023-02-11T03:43:18;94.13;;;58.30;;
19414;SDS011;9843;48.882;12.592;2023-02-11T03:45:47;81.17;;;55.67;;
19414;SDS011;9843;48.882;12.592;2023-02-11T03:48:15;90.20;;;57.40;;
19414;SDS011;9843;48.882;12.592;2023-02-11T03:50:43;93.33;;;53.97;;
19414;SDS011;9843;48.882;12.592;2023-02-11T03:53:11;94.83;;;56.10;;
19414;SDS011;9843;48.882;12.592;2023-02-11T03:55:40;97.30;;;57.43;;
19414;SDS011;9843;48.882;12.592;2023-02-11T03:58:08;91.07;;;54.63;;
19414;SDS011;9843;48.882;12.592;2023-02-11T04:00:38;92.53;;;56.77;;
19414;SDS011;9843;48.882;12.592;2023-02-11T04:03:05;92.17;;;54.80;;
19414;SDS011;9843;48.882;12.592;2023-02-11T04:05:32;102.03;;;59.87;;
19414;SDS011;9843;48.882;12.592;2023-02-11T04:07:59;94.37;;;62.20;;
19414;SDS011;9843;48.882;12.592;2023-02-11T04:10:26;107.30;;;61.87;;
19414;SDS011;9843;48.882;12.592;2023-02-11T04:12:53;103.60;;;62.80;;
19414;SDS011;9843;48.882;12.592;2023-02-11T04:15:20;87.47;;;52.70;;
19414;SDS011;9843;48.882;12.592;2023-02-11T04:17:49;99.37;;;57.23;;
19414;SDS011;9843;48.882;12.592;2023-02-11T04:20:16;84.33;;;54.03;;
19414;SDS011;9843;48.882;12.592;2023-02-11T04:22:43;92.13;;;55.40;;
19414;SDS011;9843;48.882;12.592;2023-02-11T04:25:10;112.53;;;60.93;;
19414;SDS011;9843;48.882;12.592;2023-02-11T04:27:37;95.30;;;59.03;;
19414;SDS011;9843;48.882;12.592;2023-02-11T04:30:05;96.97;;;56.70;;
19414;SDS011;9843;48.882;12.592;2023-02-11T04:32:32;92.83;;;58.90;;
19414;SDS011;9843;48.882;12.592;2023-02-11T04:35:01;89.83;;;57.27;;
19414;SDS011;9843;48.882;12.592;2023-02-11T04:37:28;86.20;;;53.80;;
19414;SDS011;9843;48.882;12.592;2023-02-11T04:39:55;92.20;;;58.00;;
19414;SDS011;9843;48.882;12.592;2023-02-11T04:42:22;86.60;;;54.63;;
19414;SDS011;9843;48.882;12.592;2023-02-11T04:44:49;81.43;;;55.63;;
19414;SDS011;9843;48.882;12.592;2023-02-11T04:47:16;85.03;;;51.70;;
19414;SDS011;9843;48.882;12.592;2023-02-11T04:49:43;90.27;;;55.10;;
19414;SDS011;9843;48.882;12.592;2023-02-11T04:52:12;85.63;;;52.20;;
19414;SDS011;9843;48.882;12.592;2023-02-11T04:54:39;88.37;;;55.47;;
19414;SDS011;9843;48.882;12.592;2023-02-11T04:57:06;79.30;;;50.57;;
19414;SDS011;9843;48.882;12.592;2023-02-11T04:59:33;81.07;;;53.07;;
19414;SDS011;9843;48.882;12.592;2023-02-11T05:02:00;92.27;;;53.57;;
19414;SDS011;9843;48.882;12.592;2023-02-11T05:04:28;92.17;;;55.83;;
19414;SDS011;9843;48.882;12.592;2023-02-11T05:06:55;78.70;;;50.27;;
19414;SDS011;9843;48.882;12.592;2023-02-11T05:09:23;84.63;;;52.43;;
19414;SDS011;9843;48.882;12.592;2023-02-11T05:11:50;79.53;;;48.23;;
19414;SDS011;9843;48.882;12.592;2023-02-11T05:14:17;79.70;;;50.20;;
19414;SDS011;9843;48.882;12.592;2023-02-11T05:16:44;72.43;;;49.70;;
19414;SDS011;9843;48.882;12.592;2023-02-11T05:19:11;85.73;;;54.63;;
19414;SDS011;9843;48.882;12.592;2023-02-11T05:21:38;78.80;;;53.77;;
19414;SDS011;9843;48.882;12.592;2023-02-11T05:24:06;91.13;;;52.93;;
19414;SDS011;9843;48.882;12.592;2023-02-11T05:26:34;92.10;;;54.20;;
19414;SDS011;9843;48.882;12.592;2023-02-11T05:29:02;93.40;;;53.27;;
19414;SDS011;9843;48.882;12.592;2023-02-11T05:31:29;77.30;;;48.07;;
19414;SDS011;9843;48.882;12.592;2023-02-11T05:33:56;92.20;;;59.00;;
19414;SDS011;9843;48.882;12.592;2023-02-11T05:36:23;81.10;;;51.10;;
19414;SDS011;9843;48.882;12.592;2023-02-11T05:38:51;87.50;;;51.60;;
19414;SDS011;9843;48.882;12.592;2023-02-11T05:41:18;93.47;;;50.83;;
19414;SDS011;9843;48.882;12.592;2023-02-11T05:43:47;77.27;;;51.27;;
19414;SDS011;9843;48.882;12.592;2023-02-11T05:46:15;83.17;;;51.43;;
19414;SDS011;9843;48.882;12.592;2023-02-11T05:48:42;81.90;;;54.93;;
19414;SDS011;9843;48.882;12.592;2023-02-11T05:51:09;84.37;;;53.97;;
19414;SDS011;9843;48.882;12.592;2023-02-11T05:53:36;86.03;;;52.67;;
19414;SDS011;9843;48.882;12.592;2023-02-11T05:56:04;95.20;;;53.73;;
19414;SDS011;9843;48.882;12.592;2023-02-11T05:58:31;83.90;;;49.43;;
19414;SDS011;9843;48.882;12.592;2023-02-11T06:00:59;92.93;;;54.00;;
19414;SDS011;9843;48.882;12.592;2023-02-11T06:03:26;76.17;;;51.33;;
19414;SDS011;9843;48.882;12.592;2023-02-11T06:05:53;84.03;;;53.87;;
19414;SDS011;9843;48.882;12.592;2023-02-11T06:08:20;80.67;;;51.47;;
19414;SDS011;9843;48.882;12.592;2023-02-11T06:10:48;88.23;;;50.87;;
19414;SDS011;9843;48.882;12.592;2023-02-11T06:13:15;85.43;;;50.93;;
19414;SDS011;9843;48.882;12.592;2023-02-11T06:15:42;89.03;;;54.00;;
19414;SDS011;9843;48.882;12.592;2023-02-11T06:18:11;80.37;;;50.00;;
19414;SDS011;9843;48.882;12.592;2023-02-11T06:20:38;84.93;;;53.00;;
19414;SDS011;9843;48.882;12.592;2023-02-11T06:23:05;89.60;;;53.27;;
19414;SDS011;9843;48.882;12.592;2023-02-11T06:25:32;89.73;;;55.13;;
19414;SDS011;9843;48.882;12.592;2023-02-11T06:27:59;81.30;;;51.27;;
19414;SDS011;9843;48.882;12.592;2023-02-11T06:30:26;93.13;;;59.03;;
19414;SDS011;9843;48.882;12.592;2023-02-11T06:32:54;87.80;;;50.67;;
19414;SDS011;9843;48.882;12.592;2023-02-11T06:35:22;98.63;;;54.23;;
19414;SDS011;9843;48.882;12.592;2023-02-11T06:37:49;84.67;;;55.57;;
19414;SDS011;9843;48.882;12.592;2023-02-11T06:40:17;94.00;;;55.53;;
19414;SDS011;9843;48.882;12.592;2023-02-11T06:42:45;90.20;;;53.93;;
19414;SDS011;9843;48.882;12.592;2023-02-11T06:45:12;84.23;;;53.30;;
19414;SDS011;9843;48.882;12.592;2023-02-11T06:47:39;98.77;;;59.13;;
19414;SDS011;9843;48.882;12.592;2023-02-11T06:50:07;84.03;;;57.50;;
19414;SDS011;9843;48.882;12.592;2023-02-11T06:52:36;89.43;;;57.17;;
19414;SDS011;9843;48.882;12.592;2023-02-11T06:55:03;99.47;;;56.97;;
19414;SDS011;9843;48.882;12.592;2023-02-11T06:57:30;86.93;;;52.43;;
19414;SDS011;9843;48.882;12.592;2023-02-11T06:59:57;104.17;;;63.93;;
19414;SDS011;9843;48.882;12.592;2023-02-11T07:02:24;78.90;;;53.07;;
19414;SDS011;9843;48.882;12.592;2023-02-11T07:04:51;93.07;;;55.00;;
19414;SDS011;9843;48.882;12.592;2023-02-11T07:07:18;92.60;;;55.00;;
19414;SDS011;9843;48.882;12.592;2023-02-11T07:09:47;87.73;;;54.23;;
19414;SDS011;9843;48.882;12.592;2023-02-11T07:12:14;94.07;;;56.03;;
19414;SDS011;9843;48.882;12.592;2023-02-11T07:14:41;89.57;;;53.27;;
19414;SDS011;9843;48.882;12.592;2023-02-11T07:17:08;92.00;;;57.00;;
19414;SDS011;9843;48.882;12.592;2023-02-11T07:19:35;99.97;;;57.50;;
19414;SDS011;9843;48.882;12.592;2023-02-11T07:22:02;75.97;;;53.07;;
19414;SDS011;9843;48.882;12.592;2023-02-11T07:24:29;85.83;;;51.57;;
19414;SDS011;9843;48.882;12.592;2023-02-11T07:26:58;87.70;;;53.70;;
19414;SDS011;9843;48.882;12.592;2023-02-11T07:29:25;88.47;;;55.00;;
19414;SDS011;9843;48.882;12.592;2023-02-11T07:31:52;84.23;;;54.07;;
19414;SDS011;9843;48.882;12.592;2023-02-11T07:34:19;85.93;;;53.97;;
19414;SDS011;9843;48.882;12.592;2023-02-11T07:36:46;83.53;;;52.13;;
19414;SDS011;9843;48.882;12.592;2023-02-11T07:39:13;81.13;;;50.67;;
19414;SDS011;9843;48.882;12.592;2023-02-11T07:41:41;75.53;;;48.90;;
19414;SDS011;9843;48.882;12.592;2023-02-11T07:44:09;76.57;;;52.37;;
19414;SDS011;9843;48.882;12.592;2023-02-11T07:46:36;81.83;;;54.37;;
19414;SDS011;9843;48.882;12.592;2023-02-11T07:49:07;87.40;;;51.13;;
19414;SDS011;9843;48.882;12.592;2023-02-11T07:51:34;90.57;;;49.50;;
19414;SDS011;9843;48.882;12.592;2023-02-11T07:54:01;81.03;;;53.93;;
19414;SDS011;9843;48.882;12.592;2023-02-11T07:56:28;87.03;;;54.90;;
19414;SDS011;9843;48.882;12.592;2023-02-11T07:58:58;84.73;;;51.70;;
19414;SDS011;9843;48.882;12.592;2023-02-11T08:01:27;85.10;;;49.60;;
19414;SDS011;9843;48.882;12.592;2023-02-11T08:03:54;83.07;;;50.57;;
19414;SDS011;9843;48.882;12.592;2023-02-11T08:06:22;76.13;;;49.07;;
19414;SDS011;9843;48.882;12.592;2023-02-11T08:08:49;87.87;;;54.80;;
19414;SDS011;9843;48.882;12.592;2023-02-11T08:11:17;78.60;;;53.07;;
19414;SDS011;9843;48.882;12.592;2023-02-11T08:13:44;74.93;;;46.03;;
19414;SDS011;9843;48.882;12.592;2023-02-11T08:16:16;78.67;;;49.90;;
19414;SDS011;9843;48.882;12.592;2023-02-11T08:18:45;83.70;;;57.43;;
19414;SDS011;9843;48.882;12.592;2023-02-11T08:21:12;78.83;;;53.37;;
19414;SDS011;9843;48.882;12.592;2023-02-11T08:23:40;78.67;;;48.00;;
19414;SDS011;9843;48.882;12.592;2023-02-11T08:26:08;80.40;;;56.07;;
19414;SDS011;9843;48.882;12.592;2023-02-11T08:28:36;82.87;;;50.00;;
19414;SDS011;9843;48.882;12.592;2023-02-11T08:31:04;69.67;;;49.13;;
19414;SDS011;9843;48.882;12.592;2023-02-11T08:33:31;85.70;;;54.00;;
19414;SDS011;9843;48.882;12.592;2023-02-11T08:36:00;67.37;;;46.63;;
19414;SDS011;9843;48.882;12.592;2023-02-11T08:38:27;80.30;;;50.47;;
19414;SDS011;9843;48.882;12.592;2023-02-11T08:40:54;68.30;;;48.27;;
19414;SDS011;9843;48.882;12.592;2023-02-11T08:43:21;68.63;;;46.33;;
19414;SDS011;9843;48.882;12.592;2023-02-11T08:45:49;63.13;;;47.53;;
19414;SDS011;9843;48.882;12.592;2023-02-11T08:48:16;67.90;;;45.33;;
19414;SDS011;9843;48.882;12.592;2023-02-11T08:50:43;67.30;;;48.37;;
19414;SDS011;9843;48.882;12.592;2023-02-11T08:53:11;67.27;;;46.60;;
19414;SDS011;9843;48.882;12.592;2023-02-11T08:55:38;84.57;;;51.27;;
19414;SDS011;9843;48.882;12.592;2023-02-11T08:58:05;63.57;;;44.13;;
19414;SDS011;9843;48.882;12.592;2023-02-11T09:00:33;79.07;;;50.07;;
19414;SDS011;9843;48.882;12.592;2023-02-11T09:03:00;79.67;;;52.10;;
19414;SDS011;9843;48.882;12.592;2023-02-11T09:05:27;70.63;;;46.13;;
19414;SDS011;9843;48.882;12.592;2023-02-11T09:07:54;66.43;;;47.10;;
19414;SDS011;9843;48.882;12.592;2023-02-11T09:10:22;72.47;;;45.27;;
19414;SDS011;9843;48.882;12.592;2023-02-11T09:12:50;72.30;;;46.13;;
19414;SDS011;9843;48.882;12.592;2023-02-11T09:15:17;68.37;;;44.20;;
19414;SDS011;9843;48.882;12.592;2023-02-11T09:17:44;67.20;;;44.10;;
19414;SDS011;9843;48.882;12.592;2023-02-11T09:20:11;61.37;;;39.87;;
19414;SDS011;9843;48.882;12.592;2023-02-11T09:22:38;61.30;;;46.50;;
19414;SDS011;9843;48.882;12.592;2023-02-11T09:25:05;64.37;;;44.03;;
19414;SDS011;9843;48.882;12.592;2023-02-11T09:27:34;64.93;;;44.70;;
19414;SDS011;9843;48.882;12.592;2023-02-11T09:30:01;57.20;;;42.33;;
19414;SDS011;9843;48.882;12.592;2023-02-11T09:32:28;57.27;;;42.63;;
19414;SDS011;9843;48.882;12.592;2023-02-11T09:34:55;61.70;;;45.13;;
19414;SDS011;9843;48.882;12.592;2023-02-11T09:37:22;66.13;;;40.33;;
19414;SDS011;9843;48.882;12.592;2023-02-11T09:39:49;62.30;;;44.13;;
19414;SDS011;9843;48.882;12.592;2023-02-11T09:45:11;58.23;;;42.03;;
19414;SDS011;9843;48.882;12.592;2023-02-11T09:47:43;63.60;;;45.33;;
19414;SDS011;9843;48.882;12.592;2023-02-11T09:50:12;60.37;;;40.97;;
19414;SDS011;9843;48.882;12.592;2023-02-11T09:52:41;59.53;;;42.03;;
19414;SDS011;9843;48.882;12.592;2023-02-11T09:55:13;58.03;;;40.17;;
19414;SDS011;9843;48.882;12.592;2023-02-11T09:57:42;56.27;;;39.93;;
19414;SDS011;9843;48.882;12.592;2023-02-11T10:00:16;58.63;;;41.73;;
19414;SDS011;9843;48.882;12.592;2023-02-11T10:02:48;63.53;;;39.67;;
19414;SDS011;9843;48.882;12.592;2023-02-11T10:05:33;58.70;;;42.40;;
19414;SDS011;9843;48.882;12.592;2023-02-11T10:08:07;51.70;;;38.60;;
19414;SDS011;9843;48.882;12.592;2023-02-11T10:10:39;62.23;;;40.20;;
19414;SDS011;9843;48.882;12.592;2023-02-11T10:15:55;64.73;;;40.77;;
19414;SDS011;9843;48.882;12.592;2023-02-11T10:18:32;64.83;;;45.17;;
19414;SDS011;9843;48.882;12.592;2023-02-11T10:21:04;53.03;;;40.03;;
19414;SDS011;9843;48.882;12.592;2023-02-11T10:23:33;60.40;;;41.80;;
19414;SDS011;9843;48.882;12.592;2023-02-11T10:26:01;68.77;;;44.97;;
19414;SDS011;9843;48.882;12.592;2023-02-11T10:28:29;59.40;;;39.47;;
19414;SDS011;9843;48.882;12.592;2023-02-11T10:30:58;62.93;;;44.90;;
19414;SDS011;9843;48.882;12.592;2023-02-11T10:33:27;72.77;;;40.07;;
19414;SDS011;9843;48.882;12.592;2023-02-11T10:35:55;60.17;;;39.83;;
19414;SDS011;9843;48.882;12.592;2023-02-11T10:38:22;56.10;;;38.90;;
19414;SDS011;9843;48.882;12.592;2023-02-11T10:40:49;60.23;;;45.00;;
19414;SDS011;9843;48.882;12.592;2023-02-11T10:43:16;66.47;;;46.03;;
19414;SDS011;9843;48.882;12.592;2023-02-11T10:45:46;56.43;;;42.77;;
19414;SDS011;9843;48.882;12.592;2023-02-11T10:51:07;53.10;;;38.67;;
19414;SDS011;9843;48.882;12.592;2023-02-11T10:53:34;64.80;;;42.87;;
19414;SDS011;9843;48.882;12.592;2023-02-11T10:56:02;55.70;;;39.40;;
19414;SDS011;9843;48.882;12.592;2023-02-11T10:58:30;70.60;;;46.20;;
19414;SDS011;9843;48.882;12.592;2023-02-11T11:00:58;59.00;;;41.00;;
19414;SDS011;9843;48.882;12.592;2023-02-11T11:03:26;60.03;;;39.20;;
19414;SDS011;9843;48.882;12.592;2023-02-11T11:05:56;59.80;;;42.47;;
19414;SDS011;9843;48.882;12.592;2023-02-11T11:08:35;65.93;;;48.70;;
19414;SDS011;9843;48.882;12.592;2023-02-11T11:11:03;58.20;;;42.37;;
19414;SDS011;9843;48.882;12.592;2023-02-11T11:13:32;58.73;;;42.47;;
19414;SDS011;9843;48.882;12.592;2023-02-11T11:16:18;70.53;;;45.17;;
19414;SDS011;9843;48.882;12.592;2023-02-11T11:18:46;68.30;;;44.60;;
19414;SDS011;9843;48.882;12.592;2023-02-11T11:21:14;68.90;;;43.80;;
19414;SDS011;9843;48.882;12.592;2023-02-11T11:23:47;65.63;;;45.77;;
19414;SDS011;9843;48.882;12.592;2023-02-11T11:26:15;61.00;;;46.50;;
19414;SDS011;9843;48.882;12.592;2023-02-11T11:28:49;64.80;;;47.50;;
19414;SDS011;9843;48.882;12.592;2023-02-11T11:31:17;73.37;;;49.10;;
19414;SDS011;9843;48.882;12.592;2023-02-11T11:33:45;68.60;;;47.63;;
19414;SDS011;9843;48.882;12.592;2023-02-11T11:36:14;65.77;;;45.77;;
19414;SDS011;9843;48.882;12.592;2023-02-11T11:38:43;70.37;;;48.80;;
19414;SDS011;9843;48.882;12.592;2023-02-11T11:41:19;66.90;;;45.10;;
19414;SDS011;9843;48.882;12.592;2023-02-11T11:43:53;70.63;;;48.57;;
19414;SDS011;9843;48.882;12.592;2023-02-11T11:46:22;67.23;;;48.73;;
19414;SDS011;9843;48.882;12.592;2023-02-11T11:48:49;67.83;;;46.90;;
19414;SDS011;9843;48.882;12.592;2023-02-11T11:51:17;58.23;;;43.93;;
19414;SDS011;9843;48.882;12.592;2023-02-11T11:53:47;72.00;;;44.33;;
19414;SDS011;9843;48.882;12.592;2023-02-11T11:56:19;66.73;;;45.33;;
19414;SDS011;9843;48.882;12.592;2023-02-11T11:58:46;56.80;;;40.10;;
19414;SDS011;9843;48.882;12.592;2023-02-11T12:01:15;59.90;;;46.17;;
19414;SDS011;9843;48.882;12.592;2023-02-11T12:06:49;60.33;;;43.80;;
19414;SDS011;9843;48.882;12.592;2023-02-11T12:09:21;60.90;;;39.90;;
19414;SDS011;9843;48.882;12.592;2023-02-11T12:11:58;62.27;;;43.10;;
19414;SDS011;9843;48.882;12.592;2023-02-11T12:14:31;78.90;;;49.40;;
19414;SDS011;9843;48.882;12.592;2023-02-11T12:17:02;66.63;;;46.33;;
19414;SDS011;9843;48.882;12.592;2023-02-11T12:19:37;80.03;;;49.60;;
19414;SDS011;9843;48.882;12.592;2023-02-11T12:22:09;66.00;;;43.50;;
19414;SDS011;9843;48.882;12.592;2023-02-11T12:24:46;59.67;;;43.03;;
19414;SDS011;9843;48.882;12.592;2023-02-11T12:27:21;65.93;;;42.93;;
19414;SDS011;9843;48.882;12.592;2023-02-11T12:29:55;78.37;;;50.23;;
19414;SDS011;9843;48.882;12.592;2023-02-11T12:32:26;65.90;;;44.30;;
19414;SDS011;9843;48.882;12.592;2023-02-11T12:35:04;65.63;;;42.17;;
19414;SDS011;9843;48.882;12.592;2023-02-11T12:37:39;56.87;;;40.90;;
19414;SDS011;9843;48.882;12.592;2023-02-11T12:40:11;63.10;;;43.60;;
19414;SDS011;9843;48.882;12.592;2023-02-11T12:42:48;57.20;;;42.60;;
19414;SDS011;9843;48.882;12.592;2023-02-11T12:45:37;61.13;;;40.97;;
19414;SDS011;9843;48.882;12.592;2023-02-11T12:48:11;55.17;;;41.37;;
19414;SDS011;9843;48.882;12.592;2023-02-11T12:50:43;55.33;;;40.73;;
19414;SDS011;9843;48.882;12.592;2023-02-11T12:53:19;49.60;;;37.20;;
19414;SDS011;9843;48.882;12.592;2023-02-11T12:55:53;57.93;;;39.73;;
19414;SDS011;9843;48.882;12.592;2023-02-11T12:58:29;58.80;;;37.13;;
19414;SDS011;9843;48.882;12.592;2023-02-11T13:00:59;49.50;;;36.50;;
19414;SDS011;9843;48.882;12.592;2023-02-11T13:03:29;60.83;;;42.73;;
19414;SDS011;9843;48.882;12.592;2023-02-11T13:05:57;54.90;;;41.03;;
19414;SDS011;9843;48.882;12.592;2023-02-11T13:08:26;61.30;;;43.43;;
19414;SDS011;9843;48.882;12.592;2023-02-11T13:10:54;61.67;;;40.77;;
19414;SDS011;9843;48.882;12.592;2023-02-11T13:13:24;55.90;;;37.30;;
19414;SDS011;9843;48.882;12.592;2023-02-11T13:15:55;54.23;;;37.97;;
19414;SDS011;9843;48.882;12.592;2023-02-11T13:18:34;59.67;;;41.13;;
19414;SDS011;9843;48.882;12.592;2023-02-11T13:21:14;56.43;;;42.17;;
19414;SDS011;9843;48.882;12.592;2023-02-11T13:23:46;60.17;;;41.10;;
19414;SDS011;9843;48.882;12.592;2023-02-11T13:26:17;54.87;;;38.40;;
19414;SDS011;9843;48.882;12.592;2023-02-11T13:28:47;65.17;;;42.97;;
19414;SDS011;9843;48.882;12.592;2023-02-11T13:31:17;78.13;;;41.67;;
19414;SDS011;9843;48.882;12.592;2023-02-11T13:33:45;66.10;;;45.70;;
19414;SDS011;9843;48.882;12.592;2023-02-11T13:36:15;65.37;;;43.10;;
19414;SDS011;9843;48.882;12.592;2023-02-11T13:38:56;59.43;;;42.40;;
19414;SDS011;9843;48.882;12.592;2023-02-11T13:41:26;69.10;;;45.47;;
19414;SDS011;9843;48.882;12.592;2023-02-11T13:43:58;67.60;;;46.57;;
19414;SDS011;9843;48.882;12.592;2023-02-11T13:46:27;55.77;;;43.83;;
19414;SDS011;9843;48.882;12.592;2023-02-11T13:48:55;62.10;;;41.97;;
19414;SDS011;9843;48.882;12.592;2023-02-11T13:51:33;58.43;;;44.27;;
19414;SDS011;9843;48.882;12.592;2023-02-11T13:54:01;62.87;;;45.30;;
19414;SDS011;9843;48.882;12.592;2023-02-11T13:56:29;57.13;;;41.20;;
19414;SDS011;9843;48.882;12.592;2023-02-11T13:58:57;61.27;;;40.47;;
19414;SDS011;9843;48.882;12.592;2023-02-11T14:02:00;58.90;;;43.30;;
19414;SDS011;9843;48.882;12.592;2023-02-11T14:10:48;64.43;;;42.30;;
19414;SDS011;9843;48.882;12.592;2023-02-11T14:13:21;59.07;;;41.33;;
19414;SDS011;9843;48.882;12.592;2023-02-11T14:15:48;58.33;;;40.30;;
19414;SDS011;9843;48.882;12.592;2023-02-11T14:18:36;60.83;;;39.53;;
19414;SDS011;9843;48.882;12.592;2023-02-11T14:21:09;56.13;;;38.80;;
19414;SDS011;9843;48.882;12.592;2023-02-11T14:23:37;52.93;;;40.67;;
19414;SDS011;9843;48.882;12.592;2023-02-11T14:28:58;56.97;;;39.43;;
19414;SDS011;9843;48.882;12.592;2023-02-11T14:31:27;60.47;;;40.80;;
19414;SDS011;9843;48.882;12.592;2023-02-11T14:34:04;58.63;;;41.07;;
19414;SDS011;9843;48.882;12.592;2023-02-11T14:36:39;52.00;;;38.40;;
19414;SDS011;9843;48.882;12.592;2023-02-11T14:39:12;58.43;;;40.80;;
19414;SDS011;9843;48.882;12.592;2023-02-11T14:41:42;61.07;;;39.57;;
19414;SDS011;9843;48.882;12.592;2023-02-11T14:44:11;56.07;;;40.07;;
19414;SDS011;9843;48.882;12.592;2023-02-11T14:46:42;56.57;;;43.80;;
19414;SDS011;9843;48.882;12.592;2023-02-11T14:49:12;54.97;;;36.37;;
19414;SDS011;9843;48.882;12.592;2023-02-11T14:51:44;60.60;;;37.63;;
19414;SDS011;9843;48.882;12.592;2023-02-11T14:54:11;58.67;;;40.87;;
19414;SDS011;9843;48.882;12.592;2023-02-11T14:56:41;61.73;;;42.07;;